sensor_id;sensor_type;location;lat;lon;timestamp;noise_LAeq;noise_LA_min;noise_LA_max;noise_LA01;noise_LA95
69616;Laerm;56822;52.516;4.708;2023-04-24T00:00:03;48.60;45.13;58.09;;
69616;Laerm;56822;52.516;4.708;2023-04-24T00:00:16;49.35;45.19;61.17;;
69616;Laerm;56822;52.516;4.708;2023-04-24T00:00:27;49.49;45.81;60.17;;
69616;Laerm;56822;52.516;4.708;2023-04-24T00:00:37;49.60;46.22;58.42;;
69616;Laerm;56822;52.516;4.708;2023-04-24T00:00:50;50.01;46.18;64.10;;
69616;Laerm;56822;52.516;4.708;2023-04-24T00:01:02;53.51;46.28;76.06;;
69616;Laerm;56822;52.516;4.708;2023-04-24T00:01:12;50.73;46.03;66.75;;
69616;Laerm;56822;52.516;4.708;2023-04-24T00:01:23;49.84;45.67;63.83;;
69616;Laerm;56822;52.516;4.708;2023-04-24T00:01:33;51.09;46.92;67.34;;
69616;Laerm;56822;52.516;4.708;2023-04-24T00:01:44;49.42;46.16;58.27;;
69616;Laerm;56822;52.516;4.708;2023-04-24T00:01:54;48.80;45.22;59.75;;
69616;Laerm;56822;52.516;4.708;2023-04-24T00:02:05;48.48;45.18;59.64;;
69616;Laerm;56822;52.516;4.708;2023-04-24T00:02:16;48.25;45.46;55.72;;
69616;Laerm;56822;52.516;4.708;2023-04-24T00:02:27;48.19;45.21;55.45;;
69616;Laerm;56822;52.516;4.708;2023-04-24T00:02:37;49.23;45.25;64.16;;
69616;Laerm;56822;52.516;4.708;2023-04-24T00:02:48;48.33;45.17;60.42;;
69616;Laerm;56822;52.516;4.708;2023-04-24T00:02:58;47.70;44.01;54.77;;
69616;Laerm;56822;52.516;4.708;2023-04-24T00:03:09;47.51;44.69;53.93;;
69616;Laerm;56822;52.516;4.708;2023-04-24T00:03:19;48.72;44.46;63.59;;
69616;Laerm;56822;52.516;4.708;2023-04-24T00:03:31;48.33;43.87;63.91;;
69616;Laerm;56822;52.516;4.708;2023-04-24T00:03:42;47.73;44.36;53.98;;
69616;Laerm;56822;52.516;4.708;2023-04-24T00:03:53;48.14;44.85;59.44;;
69616;Laerm;56822;52.516;4.708;2023-04-24T00:04:03;48.40;44.96;60.72;;
69616;Laerm;56822;52.516;4.708;2023-04-24T00:04:13;50.43;44.40;71.30;;
69616;Laerm;56822;52.516;4.708;2023-04-24T00:04:26;47.52;44.42;55.68;;
69616;Laerm;56822;52.516;4.708;2023-04-24T00:04:37;48.25;44.29;58.69;;
69616;Laerm;56822;52.516;4.708;2023-04-24T00:04:50;48.73;45.23;60.74;;
69616;Laerm;56822;52.516;4.708;2023-04-24T00:05:01;48.97;45.22;56.50;;
69616;Laerm;56822;52.516;4.708;2023-04-24T00:05:15;49.34;45.99;58.14;;
69616;Laerm;56822;52.516;4.708;2023-04-24T00:05:27;50.56;46.56;69.37;;
69616;Laerm;56822;52.516;4.708;2023-04-24T00:05:37;49.78;46.88;60.64;;
69616;Laerm;56822;52.516;4.708;2023-04-24T00:05:50;51.36;47.53;64.47;;
69616;Laerm;56822;52.516;4.708;2023-04-24T00:06:01;51.40;47.31;64.78;;
69616;Laerm;56822;52.516;4.708;2023-04-24T00:06:12;59.33;47.22;83.74;;
69616;Laerm;56822;52.516;4.708;2023-04-24T00:06:22;51.30;47.88;59.63;;
69616;Laerm;56822;52.516;4.708;2023-04-24T00:06:33;51.47;47.84;63.74;;
69616;Laerm;56822;52.516;4.708;2023-04-24T00:06:44;50.41;46.85;61.85;;
69616;Laerm;56822;52.516;4.708;2023-04-24T00:06:54;50.51;47.45;65.63;;
69616;Laerm;56822;52.516;4.708;2023-04-24T00:07:07;49.42;46.92;54.58;;
69616;Laerm;56822;52.516;4.708;2023-04-24T00:07:17;49.60;46.39;60.78;;
69616;Laerm;56822;52.516;4.708;2023-04-24T00:07:28;49.29;45.85;56.22;;
69616;Laerm;56822;52.516;4.708;2023-04-24T00:07:38;49.51;46.42;59.37;;
69616;Laerm;56822;52.516;4.708;2023-04-24T00:07:49;50.02;46.58;63.28;;
69616;Laerm;56822;52.516;4.708;2023-04-24T00:08:02;49.66;46.42;60.10;;
69616;Laerm;56822;52.516;4.708;2023-04-24T00:08:12;50.21;45.60;68.05;;
69616;Laerm;56822;52.516;4.708;2023-04-24T00:08:23;49.50;46.36;61.83;;
69616;Laerm;56822;52.516;4.708;2023-04-24T00:08:34;49.35;46.15;60.21;;
69616;Laerm;56822;52.516;4.708;2023-04-24T00:08:44;49.72;45.96;66.32;;
69616;Laerm;56822;52.516;4.708;2023-04-24T00:08:55;49.13;46.04;57.82;;
69616;Laerm;56822;52.516;4.708;2023-04-24T00:09:05;49.52;46.66;57.11;;
69616;Laerm;56822;52.516;4.708;2023-04-24T00:09:15;49.31;46.21;62.89;;
69616;Laerm;56822;52.516;4.708;2023-04-24T00:09:26;49.69;46.24;61.57;;
69616;Laerm;56822;52.516;4.708;2023-04-24T00:09:36;49.18;46.06;58.61;;
69616;Laerm;56822;52.516;4.708;2023-04-24T00:09:46;49.67;46.22;61.31;;
69616;Laerm;56822;52.516;4.708;2023-04-24T00:09:57;49.36;46.78;58.19;;
69616;Laerm;56822;52.516;4.708;2023-04-24T00:10:07;49.40;46.11;58.34;;
69616;Laerm;56822;52.516;4.708;2023-04-24T00:10:18;49.63;46.02;59.80;;
69616;Laerm;56822;52.516;4.708;2023-04-24T00:10:29;49.42;45.69;59.29;;
69616;Laerm;56822;52.516;4.708;2023-04-24T00:10:39;51.71;46.22;71.33;;
69616;Laerm;56822;52.516;4.708;2023-04-24T00:10:50;49.27;46.55;58.01;;
69616;Laerm;56822;52.516;4.708;2023-04-24T00:11:00;49.00;46.00;63.66;;
69616;Laerm;56822;52.516;4.708;2023-04-24T00:11:10;48.84;45.33;56.64;;
69616;Laerm;56822;52.516;4.708;2023-04-24T00:11:21;48.95;45.54;61.18;;
69616;Laerm;56822;52.516;4.708;2023-04-24T00:11:31;49.43;46.11;61.83;;
69616;Laerm;56822;52.516;4.708;2023-04-24T00:11:41;49.22;45.45;60.69;;
69616;Laerm;56822;52.516;4.708;2023-04-24T00:11:52;48.51;45.39;55.77;;
69616;Laerm;56822;52.516;4.708;2023-04-24T00:12:03;48.95;45.59;61.39;;
69616;Laerm;56822;52.516;4.708;2023-04-24T00:12:14;48.41;45.12;58.58;;
69616;Laerm;56822;52.516;4.708;2023-04-24T00:12:25;48.40;45.18;60.37;;
69616;Laerm;56822;52.516;4.708;2023-04-24T00:12:35;48.74;45.49;57.27;;
69616;Laerm;56822;52.516;4.708;2023-04-24T00:12:46;48.94;45.41;58.43;;
69616;Laerm;56822;52.516;4.708;2023-04-24T00:12:56;48.95;45.54;59.60;;
69616;Laerm;56822;52.516;4.708;2023-04-24T00:13:07;54.41;45.36;77.46;;
69616;Laerm;56822;52.516;4.708;2023-04-24T00:13:17;58.76;45.72;83.09;;
69616;Laerm;56822;52.516;4.708;2023-04-24T00:13:28;48.80;45.81;55.47;;
69616;Laerm;56822;52.516;4.708;2023-04-24T00:13:38;49.63;45.55;62.46;;
69616;Laerm;56822;52.516;4.708;2023-04-24T00:13:49;48.98;45.82;57.18;;
69616;Laerm;56822;52.516;4.708;2023-04-24T00:13:59;49.03;45.72;62.08;;
69616;Laerm;56822;52.516;4.708;2023-04-24T00:14:09;49.25;46.20;59.40;;
69616;Laerm;56822;52.516;4.708;2023-04-24T00:14:19;49.44;46.28;59.92;;
69616;Laerm;56822;52.516;4.708;2023-04-24T00:14:30;50.27;45.97;67.67;;
69616;Laerm;56822;52.516;4.708;2023-04-24T00:14:41;49.37;45.66;59.90;;
69616;Laerm;56822;52.516;4.708;2023-04-24T00:14:51;49.08;45.71;60.03;;
69616;Laerm;56822;52.516;4.708;2023-04-24T00:15:01;49.31;45.95;57.76;;
69616;Laerm;56822;52.516;4.708;2023-04-24T00:15:12;49.38;46.09;62.09;;
69616;Laerm;56822;52.516;4.708;2023-04-24T00:15:22;49.33;45.38;62.35;;
69616;Laerm;56822;52.516;4.708;2023-04-24T00:15:32;49.37;45.88;64.56;;
69616;Laerm;56822;52.516;4.708;2023-04-24T00:15:43;48.59;45.45;57.25;;
69616;Laerm;56822;52.516;4.708;2023-04-24T00:15:53;48.95;45.91;56.77;;
69616;Laerm;56822;52.516;4.708;2023-04-24T00:16:03;49.63;46.06;59.24;;
69616;Laerm;56822;52.516;4.708;2023-04-24T00:16:14;48.97;46.36;58.41;;
69616;Laerm;56822;52.516;4.708;2023-04-24T00:16:24;49.84;46.09;62.04;;
69616;Laerm;56822;52.516;4.708;2023-04-24T00:16:35;54.00;46.45;76.48;;
69616;Laerm;56822;52.516;4.708;2023-04-24T00:16:45;49.48;45.34;63.52;;
69616;Laerm;56822;52.516;4.708;2023-04-24T00:16:55;48.90;46.43;57.97;;
69616;Laerm;56822;52.516;4.708;2023-04-24T00:17:05;51.83;46.40;71.96;;
69616;Laerm;56822;52.516;4.708;2023-04-24T00:17:16;48.99;46.27;58.57;;
69616;Laerm;56822;52.516;4.708;2023-04-24T00:17:29;54.72;45.82;76.28;;
69616;Laerm;56822;52.516;4.708;2023-04-24T00:17:40;49.16;45.41;59.97;;
69616;Laerm;56822;52.516;4.708;2023-04-24T00:17:50;48.99;45.98;56.80;;
69616;Laerm;56822;52.516;4.708;2023-04-24T00:18:01;49.49;45.69;61.94;;
69616;Laerm;56822;52.516;4.708;2023-04-24T00:18:12;50.44;45.43;69.62;;
69616;Laerm;56822;52.516;4.708;2023-04-24T00:18:22;48.50;44.98;59.20;;
69616;Laerm;56822;52.516;4.708;2023-04-24T00:18:33;48.38;45.07;60.96;;
69616;Laerm;56822;52.516;4.708;2023-04-24T00:18:43;47.95;44.86;56.71;;
69616;Laerm;56822;52.516;4.708;2023-04-24T00:18:54;47.86;44.32;55.93;;
69616;Laerm;56822;52.516;4.708;2023-04-24T00:19:05;47.49;44.54;55.61;;
69616;Laerm;56822;52.516;4.708;2023-04-24T00:19:16;48.07;44.72;59.67;;
69616;Laerm;56822;52.516;4.708;2023-04-24T00:19:27;47.89;44.54;62.15;;
69616;Laerm;56822;52.516;4.708;2023-04-24T00:19:37;54.66;44.79;75.30;;
69616;Laerm;56822;52.516;4.708;2023-04-24T00:19:48;49.62;44.20;69.58;;
69616;Laerm;56822;52.516;4.708;2023-04-24T00:19:58;47.87;44.29;57.08;;
69616;Laerm;56822;52.516;4.708;2023-04-24T00:20:09;48.15;44.91;60.85;;
69616;Laerm;56822;52.516;4.708;2023-04-24T00:20:20;47.67;44.99;54.19;;
69616;Laerm;56822;52.516;4.708;2023-04-24T00:20:31;47.79;44.01;57.61;;
69616;Laerm;56822;52.516;4.708;2023-04-24T00:20:45;48.20;44.47;61.10;;
69616;Laerm;56822;52.516;4.708;2023-04-24T00:20:56;46.91;43.90;56.51;;
69616;Laerm;56822;52.516;4.708;2023-04-24T00:21:06;47.02;43.48;53.60;;
69616;Laerm;56822;52.516;4.708;2023-04-24T00:21:17;47.11;43.13;61.79;;
69616;Laerm;56822;52.516;4.708;2023-04-24T00:21:28;47.18;43.49;62.41;;
69616;Laerm;56822;52.516;4.708;2023-04-24T00:21:38;46.84;44.24;54.70;;
69616;Laerm;56822;52.516;4.708;2023-04-24T00:21:48;47.04;43.61;61.93;;
69616;Laerm;56822;52.516;4.708;2023-04-24T00:22:02;50.65;43.15;73.34;;
69616;Laerm;56822;52.516;4.708;2023-04-24T00:22:12;46.53;43.12;54.12;;
69616;Laerm;56822;52.516;4.708;2023-04-24T00:22:25;46.64;43.20;58.71;;
69616;Laerm;56822;52.516;4.708;2023-04-24T00:22:36;49.28;43.26;67.39;;
69616;Laerm;56822;52.516;4.708;2023-04-24T00:22:46;48.11;43.39;66.24;;
69616;Laerm;56822;52.516;4.708;2023-04-24T00:22:56;47.10;43.60;55.03;;
69616;Laerm;56822;52.516;4.708;2023-04-24T00:23:07;48.51;44.28;64.36;;
69616;Laerm;56822;52.516;4.708;2023-04-24T00:23:17;48.08;44.25;63.87;;
69616;Laerm;56822;52.516;4.708;2023-04-24T00:23:27;47.53;44.67;54.31;;
69616;Laerm;56822;52.516;4.708;2023-04-24T00:23:38;48.74;44.71;62.30;;
69616;Laerm;56822;52.516;4.708;2023-04-24T00:23:48;48.53;44.83;57.22;;
69616;Laerm;56822;52.516;4.708;2023-04-24T00:23:58;51.30;44.21;71.44;;
69616;Laerm;56822;52.516;4.708;2023-04-24T00:24:08;51.29;44.05;72.90;;
69616;Laerm;56822;52.516;4.708;2023-04-24T00:24:19;48.67;44.82;57.46;;
69616;Laerm;56822;52.516;4.708;2023-04-24T00:24:30;48.68;44.79;61.59;;
69616;Laerm;56822;52.516;4.708;2023-04-24T00:24:40;48.25;44.50;55.87;;
69616;Laerm;56822;52.516;4.708;2023-04-24T00:24:51;48.87;45.06;61.32;;
69616;Laerm;56822;52.516;4.708;2023-04-24T00:25:01;47.74;44.29;54.58;;
69616;Laerm;56822;52.516;4.708;2023-04-24T00:25:11;49.20;45.08;60.07;;
69616;Laerm;56822;52.516;4.708;2023-04-24T00:25:21;49.53;44.80;67.40;;
69616;Laerm;56822;52.516;4.708;2023-04-24T00:25:32;48.60;45.04;61.66;;
69616;Laerm;56822;52.516;4.708;2023-04-24T00:25:42;56.26;44.43;80.09;;
69616;Laerm;56822;52.516;4.708;2023-04-24T00:25:52;48.72;45.15;55.11;;
69616;Laerm;56822;52.516;4.708;2023-04-24T00:26:03;49.90;45.46;63.05;;
69616;Laerm;56822;52.516;4.708;2023-04-24T00:26:13;49.37;44.55;58.06;;
69616;Laerm;56822;52.516;4.708;2023-04-24T00:26:23;51.05;46.07;70.51;;
69616;Laerm;56822;52.516;4.708;2023-04-24T00:26:34;49.95;45.13;67.45;;
69616;Laerm;56822;52.516;4.708;2023-04-24T00:26:44;48.88;45.11;59.15;;
69616;Laerm;56822;52.516;4.708;2023-04-24T00:26:54;48.67;44.85;60.79;;
69616;Laerm;56822;52.516;4.708;2023-04-24T00:27:05;48.88;45.18;61.71;;
69616;Laerm;56822;52.516;4.708;2023-04-24T00:27:15;49.52;45.03;60.28;;
69616;Laerm;56822;52.516;4.708;2023-04-24T00:27:25;48.92;45.32;58.50;;
69616;Laerm;56822;52.516;4.708;2023-04-24T00:27:35;48.14;44.26;57.96;;
69616;Laerm;56822;52.516;4.708;2023-04-24T00:27:47;60.54;44.65;85.33;;
69616;Laerm;56822;52.516;4.708;2023-04-24T00:27:57;52.77;45.34;74.94;;
69616;Laerm;56822;52.516;4.708;2023-04-24T00:28:07;48.33;44.82;57.08;;
69616;Laerm;56822;52.516;4.708;2023-04-24T00:28:18;48.44;45.30;56.27;;
69616;Laerm;56822;52.516;4.708;2023-04-24T00:28:28;48.15;44.96;55.74;;
69616;Laerm;56822;52.516;4.708;2023-04-24T00:28:38;48.02;44.35;55.92;;
69616;Laerm;56822;52.516;4.708;2023-04-24T00:28:49;47.23;43.29;55.87;;
69616;Laerm;56822;52.516;4.708;2023-04-24T00:28:59;47.62;42.99;61.71;;
69616;Laerm;56822;52.516;4.708;2023-04-24T00:29:09;47.66;43.53;58.62;;
69616;Laerm;56822;52.516;4.708;2023-04-24T00:29:19;47.19;43.92;59.09;;
69616;Laerm;56822;52.516;4.708;2023-04-24T00:29:30;46.79;43.54;52.72;;
69616;Laerm;56822;52.516;4.708;2023-04-24T00:29:40;47.42;43.06;63.25;;
69616;Laerm;56822;52.516;4.708;2023-04-24T00:29:50;47.22;43.48;61.36;;
69616;Laerm;56822;52.516;4.708;2023-04-24T00:30:01;47.06;43.61;58.90;;
69616;Laerm;56822;52.516;4.708;2023-04-24T00:30:11;50.55;43.89;71.93;;
69616;Laerm;56822;52.516;4.708;2023-04-24T00:30:21;48.23;44.43;62.41;;
69616;Laerm;56822;52.516;4.708;2023-04-24T00:30:32;49.86;44.23;70.68;;
69616;Laerm;56822;52.516;4.708;2023-04-24T00:30:42;51.79;44.80;74.01;;
69616;Laerm;56822;52.516;4.708;2023-04-24T00:30:53;48.84;44.93;63.68;;
69616;Laerm;56822;52.516;4.708;2023-04-24T00:31:03;47.45;44.10;55.60;;
69616;Laerm;56822;52.516;4.708;2023-04-24T00:31:13;47.38;44.08;56.17;;
69616;Laerm;56822;52.516;4.708;2023-04-24T00:31:24;47.09;43.63;56.34;;
69616;Laerm;56822;52.516;4.708;2023-04-24T00:31:34;46.82;43.48;58.64;;
69616;Laerm;56822;52.516;4.708;2023-04-24T00:31:44;46.84;43.44;58.71;;
69616;Laerm;56822;52.516;4.708;2023-04-24T00:31:55;51.85;43.49;75.06;;
69616;Laerm;56822;52.516;4.708;2023-04-24T00:32:05;48.25;43.09;65.31;;
69616;Laerm;56822;52.516;4.708;2023-04-24T00:32:15;46.01;42.88;53.72;;
69616;Laerm;56822;52.516;4.708;2023-04-24T00:32:26;46.70;43.03;53.43;;
69616;Laerm;56822;52.516;4.708;2023-04-24T00:32:36;48.70;43.86;66.77;;
69616;Laerm;56822;52.516;4.708;2023-04-24T00:32:46;49.84;43.99;69.59;;
69616;Laerm;56822;52.516;4.708;2023-04-24T00:32:57;47.40;43.91;55.15;;
69616;Laerm;56822;52.516;4.708;2023-04-24T00:33:07;48.03;43.63;64.93;;
69616;Laerm;56822;52.516;4.708;2023-04-24T00:33:17;47.99;43.83;59.19;;
69616;Laerm;56822;52.516;4.708;2023-04-24T00:33:28;48.87;43.81;63.07;;
69616;Laerm;56822;52.516;4.708;2023-04-24T00:33:38;47.94;43.60;56.16;;
69616;Laerm;56822;52.516;4.708;2023-04-24T00:33:48;47.07;43.50;55.93;;
69616;Laerm;56822;52.516;4.708;2023-04-24T00:33:59;46.76;42.99;57.65;;
69616;Laerm;56822;52.516;4.708;2023-04-24T00:34:09;46.93;42.92;56.88;;
69616;Laerm;56822;52.516;4.708;2023-04-24T00:34:20;49.27;42.41;69.69;;
69616;Laerm;56822;52.516;4.708;2023-04-24T00:34:30;46.35;42.03;61.09;;
69616;Laerm;56822;52.516;4.708;2023-04-24T00:34:42;46.54;42.42;60.45;;
69616;Laerm;56822;52.516;4.708;2023-04-24T00:34:52;46.30;42.12;54.36;;
69616;Laerm;56822;52.516;4.708;2023-04-24T00:35:03;52.36;43.53;75.16;;
69616;Laerm;56822;52.516;4.708;2023-04-24T00:35:13;47.88;44.47;55.38;;
69616;Laerm;56822;52.516;4.708;2023-04-24T00:35:24;47.94;43.70;64.92;;
69616;Laerm;56822;52.516;4.708;2023-04-24T00:35:35;47.61;43.85;55.05;;
69616;Laerm;56822;52.516;4.708;2023-04-24T00:35:45;47.64;43.54;55.78;;
69616;Laerm;56822;52.516;4.708;2023-04-24T00:35:55;47.55;44.00;56.96;;
69616;Laerm;56822;52.516;4.708;2023-04-24T00:36:05;49.24;44.84;65.66;;
69616;Laerm;56822;52.516;4.708;2023-04-24T00:36:16;47.66;43.75;60.76;;
69616;Laerm;56822;52.516;4.708;2023-04-24T00:36:26;47.04;43.47;55.93;;
69616;Laerm;56822;52.516;4.708;2023-04-24T00:36:37;48.66;44.15;68.31;;
69616;Laerm;56822;52.516;4.708;2023-04-24T00:36:47;47.79;44.02;61.73;;
69616;Laerm;56822;52.516;4.708;2023-04-24T00:36:59;54.56;43.75;76.43;;
69616;Laerm;56822;52.516;4.708;2023-04-24T00:37:10;47.91;44.42;58.02;;
69616;Laerm;56822;52.516;4.708;2023-04-24T00:37:21;48.88;43.82;60.28;;
69616;Laerm;56822;52.516;4.708;2023-04-24T00:37:31;50.37;43.17;71.21;;
69616;Laerm;56822;52.516;4.708;2023-04-24T00:37:42;51.10;43.28;73.24;;
69616;Laerm;56822;52.516;4.708;2023-04-24T00:37:52;48.98;44.15;67.02;;
69616;Laerm;56822;52.516;4.708;2023-04-24T00:38:02;48.32;44.44;59.50;;
69616;Laerm;56822;52.516;4.708;2023-04-24T00:38:13;54.12;44.51;77.24;;
69616;Laerm;56822;52.516;4.708;2023-04-24T00:38:23;49.43;43.78;69.45;;
69616;Laerm;56822;52.516;4.708;2023-04-24T00:38:33;53.89;43.96;77.35;;
69616;Laerm;56822;52.516;4.708;2023-04-24T00:38:44;48.93;44.63;61.23;;
69616;Laerm;56822;52.516;4.708;2023-04-24T00:38:54;49.56;44.80;66.59;;
69616;Laerm;56822;52.516;4.708;2023-04-24T00:39:05;48.28;44.11;55.92;;
69616;Laerm;56822;52.516;4.708;2023-04-24T00:39:15;49.49;44.00;60.89;;
69616;Laerm;56822;52.516;4.708;2023-04-24T00:39:26;55.16;44.70;78.71;;
69616;Laerm;56822;52.516;4.708;2023-04-24T00:39:36;50.01;45.48;64.88;;
69616;Laerm;56822;52.516;4.708;2023-04-24T00:39:46;50.80;46.44;63.90;;
69616;Laerm;56822;52.516;4.708;2023-04-24T00:39:56;51.31;46.45;62.51;;
69616;Laerm;56822;52.516;4.708;2023-04-24T00:40:07;49.90;46.14;57.36;;
69616;Laerm;56822;52.516;4.708;2023-04-24T00:40:17;49.64;45.80;61.38;;
69616;Laerm;56822;52.516;4.708;2023-04-24T00:40:28;50.71;45.23;65.17;;
69616;Laerm;56822;52.516;4.708;2023-04-24T00:40:38;50.03;45.17;60.44;;
69616;Laerm;56822;52.516;4.708;2023-04-24T00:40:48;50.90;45.44;70.68;;
69616;Laerm;56822;52.516;4.708;2023-04-24T00:41:00;49.03;44.72;58.62;;
69616;Laerm;56822;52.516;4.708;2023-04-24T00:41:10;49.40;45.06;63.89;;
69616;Laerm;56822;52.516;4.708;2023-04-24T00:41:21;49.07;45.26;59.40;;
69616;Laerm;56822;52.516;4.708;2023-04-24T00:41:31;50.22;45.82;69.18;;
69616;Laerm;56822;52.516;4.708;2023-04-24T00:41:42;49.00;45.66;54.69;;
69616;Laerm;56822;52.516;4.708;2023-04-24T00:41:53;49.33;45.66;63.43;;
69616;Laerm;56822;52.516;4.708;2023-04-24T00:42:03;49.88;45.36;63.31;;
69616;Laerm;56822;52.516;4.708;2023-04-24T00:42:16;49.26;45.75;59.63;;
69616;Laerm;56822;52.516;4.708;2023-04-24T00:42:26;50.43;45.28;67.60;;
69616;Laerm;56822;52.516;4.708;2023-04-24T00:42:37;52.94;45.42;72.79;;
69616;Laerm;56822;52.516;4.708;2023-04-24T00:42:47;49.14;45.22;56.96;;
69616;Laerm;56822;52.516;4.708;2023-04-24T00:42:58;56.48;45.42;78.25;;
69616;Laerm;56822;52.516;4.708;2023-04-24T00:43:09;49.09;45.50;55.70;;
69616;Laerm;56822;52.516;4.708;2023-04-24T00:43:19;53.00;46.05;73.88;;
69616;Laerm;56822;52.516;4.708;2023-04-24T00:43:30;50.36;45.91;64.42;;
69616;Laerm;56822;52.516;4.708;2023-04-24T00:43:40;49.86;45.90;60.57;;
69616;Laerm;56822;52.516;4.708;2023-04-24T00:43:51;51.12;45.56;65.60;;
69616;Laerm;56822;52.516;4.708;2023-04-24T00:44:02;57.28;45.58;81.48;;
69616;Laerm;56822;52.516;4.708;2023-04-24T00:44:12;49.34;45.70;58.34;;
69616;Laerm;56822;52.516;4.708;2023-04-24T00:44:22;49.96;45.72;61.41;;
69616;Laerm;56822;52.516;4.708;2023-04-24T00:44:33;50.31;47.28;57.87;;
69616;Laerm;56822;52.516;4.708;2023-04-24T00:44:44;51.14;47.82;59.95;;
69616;Laerm;56822;52.516;4.708;2023-04-24T00:44:55;51.28;47.54;62.15;;
69616;Laerm;56822;52.516;4.708;2023-04-24T00:45:06;56.49;47.12;77.37;;
69616;Laerm;56822;52.516;4.708;2023-04-24T00:45:17;53.48;45.42;74.58;;
69616;Laerm;56822;52.516;4.708;2023-04-24T00:45:27;50.80;46.84;64.98;;
69616;Laerm;56822;52.516;4.708;2023-04-24T00:45:38;50.32;45.92;60.21;;
69616;Laerm;56822;52.516;4.708;2023-04-24T00:45:48;52.97;47.43;73.55;;
69616;Laerm;56822;52.516;4.708;2023-04-24T00:45:59;55.26;48.17;77.02;;
69616;Laerm;56822;52.516;4.708;2023-04-24T00:46:12;51.63;47.62;61.37;;
69616;Laerm;56822;52.516;4.708;2023-04-24T00:46:22;51.77;47.59;63.52;;
69616;Laerm;56822;52.516;4.708;2023-04-24T00:46:33;51.79;48.53;63.60;;
69616;Laerm;56822;52.516;4.708;2023-04-24T00:46:43;52.01;47.77;68.47;;
69616;Laerm;56822;52.516;4.708;2023-04-24T00:46:54;69.07;47.57;93.80;;
69616;Laerm;56822;52.516;4.708;2023-04-24T00:47:04;52.24;48.13;70.03;;
69616;Laerm;56822;52.516;4.708;2023-04-24T00:47:15;52.04;48.26;61.63;;
69616;Laerm;56822;52.516;4.708;2023-04-24T00:47:26;57.98;48.18;81.69;;
69616;Laerm;56822;52.516;4.708;2023-04-24T00:47:36;52.64;47.39;67.95;;
69616;Laerm;56822;52.516;4.708;2023-04-24T00:47:47;59.01;47.88;82.75;;
69616;Laerm;56822;52.516;4.708;2023-04-24T00:47:58;54.77;48.76;76.04;;
69616;Laerm;56822;52.516;4.708;2023-04-24T00:48:10;54.07;49.27;74.21;;
69616;Laerm;56822;52.516;4.708;2023-04-24T00:48:21;52.39;48.72;63.73;;
69616;Laerm;56822;52.516;4.708;2023-04-24T00:48:33;53.89;49.19;69.86;;
69616;Laerm;56822;52.516;4.708;2023-04-24T00:48:44;53.91;49.09;70.47;;
69616;Laerm;56822;52.516;4.708;2023-04-24T00:48:56;53.89;49.41;69.35;;
69616;Laerm;56822;52.516;4.708;2023-04-24T00:49:06;55.39;49.96;73.88;;
69616;Laerm;56822;52.516;4.708;2023-04-24T00:49:17;58.09;51.78;76.95;;
69616;Laerm;56822;52.516;4.708;2023-04-24T00:49:28;55.04;50.92;70.54;;
69616;Laerm;56822;52.516;4.708;2023-04-24T00:49:38;56.15;51.16;75.66;;
69616;Laerm;56822;52.516;4.708;2023-04-24T00:49:48;53.98;50.10;62.53;;
69616;Laerm;56822;52.516;4.708;2023-04-24T00:50:01;53.43;49.54;64.33;;
69616;Laerm;56822;52.516;4.708;2023-04-24T00:50:11;54.99;49.36;73.83;;
69616;Laerm;56822;52.516;4.708;2023-04-24T00:50:23;52.14;48.44;67.59;;
69616;Laerm;56822;52.516;4.708;2023-04-24T00:50:35;53.91;48.94;73.33;;
69616;Laerm;56822;52.516;4.708;2023-04-24T00:50:45;64.07;48.57;88.00;;
69616;Laerm;56822;52.516;4.708;2023-04-24T00:50:56;55.62;47.95;74.86;;
69616;Laerm;56822;52.516;4.708;2023-04-24T00:51:07;58.05;46.85;82.20;;
69616;Laerm;56822;52.516;4.708;2023-04-24T00:51:17;51.45;48.56;57.25;;
69616;Laerm;56822;52.516;4.708;2023-04-24T00:51:28;54.25;48.45;70.32;;
69616;Laerm;56822;52.516;4.708;2023-04-24T00:51:38;53.33;47.90;72.67;;
69616;Laerm;56822;52.516;4.708;2023-04-24T00:51:48;50.69;47.42;60.01;;
69616;Laerm;56822;52.516;4.708;2023-04-24T00:51:59;50.64;46.68;67.25;;
69616;Laerm;56822;52.516;4.708;2023-04-24T00:52:09;52.56;46.73;71.79;;
69616;Laerm;56822;52.516;4.708;2023-04-24T00:52:20;56.66;47.59;80.02;;
69616;Laerm;56822;52.516;4.708;2023-04-24T00:52:34;51.49;47.06;67.48;;
69616;Laerm;56822;52.516;4.708;2023-04-24T00:52:44;51.45;46.90;67.72;;
69616;Laerm;56822;52.516;4.708;2023-04-24T00:52:55;58.31;46.59;81.56;;
69616;Laerm;56822;52.516;4.708;2023-04-24T00:53:05;52.44;46.89;70.20;;
69616;Laerm;56822;52.516;4.708;2023-04-24T00:53:16;50.42;46.39;64.66;;
69616;Laerm;56822;52.516;4.708;2023-04-24T00:53:26;51.55;46.23;70.26;;
69616;Laerm;56822;52.516;4.708;2023-04-24T00:53:36;49.63;45.69;65.03;;
69616;Laerm;56822;52.516;4.708;2023-04-24T00:53:47;50.09;46.10;63.15;;
69616;Laerm;56822;52.516;4.708;2023-04-24T00:53:57;50.51;45.79;67.06;;
69616;Laerm;56822;52.516;4.708;2023-04-24T00:54:07;51.91;46.31;72.72;;
69616;Laerm;56822;52.516;4.708;2023-04-24T00:54:18;54.20;46.51;75.76;;
69616;Laerm;56822;52.516;4.708;2023-04-24T00:54:28;54.88;46.50;72.74;;
69616;Laerm;56822;52.516;4.708;2023-04-24T00:54:38;53.00;46.56;73.95;;
69616;Laerm;56822;52.516;4.708;2023-04-24T00:54:48;52.91;47.56;74.21;;
69616;Laerm;56822;52.516;4.708;2023-04-24T00:54:59;50.79;47.85;63.13;;
69616;Laerm;56822;52.516;4.708;2023-04-24T00:55:10;51.68;47.72;69.25;;
69616;Laerm;56822;52.516;4.708;2023-04-24T00:55:20;53.89;46.87;76.16;;
69616;Laerm;56822;52.516;4.708;2023-04-24T00:55:31;52.94;47.68;69.17;;
69616;Laerm;56822;52.516;4.708;2023-04-24T00:55:41;50.18;46.96;61.81;;
69616;Laerm;56822;52.516;4.708;2023-04-24T00:55:52;51.97;46.48;73.08;;
69616;Laerm;56822;52.516;4.708;2023-04-24T00:56:02;50.87;45.76;65.72;;
69616;Laerm;56822;52.516;4.708;2023-04-24T00:56:13;53.29;45.33;74.40;;
69616;Laerm;56822;52.516;4.708;2023-04-24T00:56:23;52.04;45.75;72.43;;
69616;Laerm;56822;52.516;4.708;2023-04-24T00:56:33;50.31;45.69;66.92;;
69616;Laerm;56822;52.516;4.708;2023-04-24T00:56:44;52.18;45.95;68.73;;
69616;Laerm;56822;52.516;4.708;2023-04-24T00:56:55;49.69;46.05;63.66;;
69616;Laerm;56822;52.516;4.708;2023-04-24T00:57:07;58.38;46.88;82.22;;
69616;Laerm;56822;52.516;4.708;2023-04-24T00:57:17;50.83;46.65;66.22;;
69616;Laerm;56822;52.516;4.708;2023-04-24T00:57:27;49.79;45.84;62.44;;
69616;Laerm;56822;52.516;4.708;2023-04-24T00:57:38;47.58;44.90;55.76;;
69616;Laerm;56822;52.516;4.708;2023-04-24T00:57:48;49.37;44.03;65.84;;
69616;Laerm;56822;52.516;4.708;2023-04-24T00:57:59;48.66;43.50;64.64;;
69616;Laerm;56822;52.516;4.708;2023-04-24T00:58:09;48.54;44.47;64.56;;
69616;Laerm;56822;52.516;4.708;2023-04-24T00:58:20;47.68;44.12;61.45;;
69616;Laerm;56822;52.516;4.708;2023-04-24T00:58:31;48.83;43.65;64.46;;
69616;Laerm;56822;52.516;4.708;2023-04-24T00:58:42;47.97;43.91;60.00;;
69616;Laerm;56822;52.516;4.708;2023-04-24T00:58:52;48.52;44.08;66.32;;
69616;Laerm;56822;52.516;4.708;2023-04-24T00:59:03;52.20;43.98;74.69;;
69616;Laerm;56822;52.516;4.708;2023-04-24T00:59:15;49.15;43.57;68.11;;
69616;Laerm;56822;52.516;4.708;2023-04-24T00:59:26;47.82;43.88;61.99;;
69616;Laerm;56822;52.516;4.708;2023-04-24T00:59:36;49.73;43.58;67.66;;